createdAt,value
2022-12-13T00:00:05.432Z,-8.5
2022-12-13T00:01:05.855Z,-8.5
2022-12-13T00:02:06.671Z,-8.5
2022-12-13T00:03:05.842Z,-10
2022-12-13T00:04:06.084Z,-10
2022-12-13T00:05:06.278Z,-8.4
2022-12-13T00:06:05.761Z,-8.4
2022-12-13T00:07:06.234Z,-10
2022-12-13T00:08:05.974Z,-10
2022-12-13T00:09:06.134Z,-8.4
2022-12-13T00:10:06.240Z,-8.4
2022-12-13T00:11:06.144Z,-8.3
2022-12-13T00:12:05.606Z,-8.3
2022-12-13T00:13:06.125Z,-8.3
2022-12-13T00:14:05.585Z,-8.3
2022-12-13T00:15:05.929Z,-8.3
2022-12-13T00:16:06.154Z,-8.3
2022-12-13T00:17:06.492Z,-10
2022-12-13T00:18:05.003Z,-8.3
2022-12-13T00:19:04.984Z,-8.2
2022-12-13T00:20:05.552Z,-8.2
2022-12-13T00:21:06.093Z,-8.2
2022-12-13T00:22:05.707Z,-8.2
2022-12-13T00:23:06.176Z,-8.2
2022-12-13T00:24:05.693Z,-8.2
2022-12-13T00:25:06.144Z,-8.2
2022-12-13T00:26:06.088Z,-8.2
2022-12-13T00:27:05.633Z,-8.2
2022-12-13T00:28:05.884Z,-8.2
2022-12-13T00:29:06.504Z,-9
2022-12-13T00:30:06.347Z,-9
2022-12-13T00:32:02.199Z,-8.2
2022-12-13T00:32:06.185Z,-8.2
2022-12-13T00:33:06.231Z,-8.3
2022-12-13T00:34:05.626Z,-8.3
2022-12-13T00:35:06.104Z,-8.3
2022-12-13T00:36:05.601Z,-8.3
2022-12-13T00:37:06.062Z,-9
2022-12-13T00:38:05.611Z,-9
2022-12-13T00:39:06.012Z,-8.3
2022-12-13T00:40:06.429Z,-8.3
2022-12-13T00:41:06.060Z,-8.3
2022-12-13T00:42:05.433Z,-8.3
2022-12-13T00:43:06.017Z,-8.3
2022-12-13T00:44:05.004Z,-8.3
2022-12-13T00:45:05.606Z,-9
2022-12-13T00:46:06.571Z,-8.3
2022-12-13T00:47:06.619Z,-8.3
2022-12-13T00:48:05.670Z,-8.4
2022-12-13T00:49:06.148Z,-8.3
2022-12-13T00:50:05.545Z,-8.3
2022-12-13T00:51:05.942Z,-8.4
2022-12-13T00:52:06.128Z,-8.4
2022-12-13T00:53:05.643Z,-8.4
2022-12-13T00:54:06.477Z,-8.4
2022-12-13T00:55:06.057Z,-8.4
2022-12-13T00:56:05.482Z,-8.4
2022-12-13T00:57:06.056Z,-8.4
2022-12-13T00:58:06.137Z,-8.5
2022-12-13T00:59:06.659Z,-8.4
2022-12-13T01:00:06.067Z,-8.5
2022-12-13T01:01:06.178Z,-8.5
2022-12-13T01:02:05.461Z,-9
2022-12-13T01:03:06.311Z,-8.5
2022-12-13T01:04:05.527Z,-8.6
2022-12-13T01:05:06.048Z,-8.6
2022-12-13T01:06:19.915Z,-8.6
2022-12-13T01:07:05.903Z,-8.6
2022-12-13T01:08:06.455Z,-8.7
2022-12-13T01:09:05.722Z,-8.7
2022-12-13T01:10:04.912Z,-8.7
2022-12-13T01:11:04.650Z,-8.7
2022-12-13T01:12:04.700Z,-8.7
2022-12-13T01:13:06.239Z,-10
2022-12-13T01:14:06.019Z,-8.6
2022-12-13T01:15:06.487Z,-8.6
2022-12-13T01:16:05.874Z,-8.6
2022-12-13T01:17:06.649Z,-8.7
2022-12-13T01:18:06.236Z,-8.7
2022-12-13T01:19:05.677Z,-8.7
2022-12-13T01:20:06.059Z,-8.7
2022-12-13T01:21:05.673Z,-8.7
2022-12-13T01:22:05.634Z,-8.7
2022-12-13T01:23:06.115Z,-8.7
2022-12-13T01:24:05.580Z,-8.7
2022-12-13T01:25:06.021Z,-8.7
2022-12-13T01:26:05.569Z,-8.7
2022-12-13T01:27:06.309Z,-8.6
2022-12-13T01:28:05.727Z,-8.6
2022-12-13T01:29:06.025Z,-8.7
2022-12-13T01:30:06.508Z,-8.6
2022-12-13T01:31:05.873Z,-8.6
2022-12-13T01:32:06.095Z,-8.7
2022-12-13T01:33:16.581Z,-8.6
2022-12-13T01:34:05.863Z,-8.6
2022-12-13T01:35:05.600Z,-8.6
2022-12-13T01:36:05.891Z,-8.6
2022-12-13T01:37:06.392Z,-8.6
2022-12-13T01:38:19.558Z,-8.7
2022-12-13T01:39:18.961Z,-8.6
2022-12-13T01:40:19.982Z,-8.6
2022-12-13T01:41:21.283Z,-8.6
2022-12-13T01:42:06.300Z,-8.6
2022-12-13T01:43:18.689Z,-8.6
2022-12-13T01:44:05.971Z,-8.6
2022-12-13T01:45:06.467Z,-8.6
2022-12-13T01:46:06.420Z,-8.6
2022-12-13T01:47:05.685Z,-8.5
2022-12-13T01:48:06.251Z,-8.5
2022-12-13T01:49:05.753Z,-8.6
2022-12-13T01:50:05.743Z,-8.6
2022-12-13T01:51:06.367Z,-10
2022-12-13T01:52:06.282Z,-10
2022-12-13T01:53:05.769Z,-10
2022-12-13T01:54:05.612Z,-8.6
2022-12-13T01:55:07.835Z,-8.6
2022-12-13T01:56:05.734Z,-8.6
2022-12-13T01:57:05.585Z,-8.6
2022-12-13T01:58:04.815Z,-10
2022-12-13T01:59:06.065Z,-8.6
2022-12-13T02:00:06.085Z,-10
2022-12-13T02:01:06.163Z,-10
2022-12-13T02:02:06.237Z,-10
2022-12-13T02:03:05.922Z,-8.6
2022-12-13T02:04:06.494Z,-8.6
2022-12-13T02:05:06.719Z,-8.6
2022-12-13T02:06:05.612Z,-8.6
2022-12-13T02:07:05.993Z,-8.6
2022-12-13T02:08:06.725Z,-8.6
2022-12-13T02:09:06.170Z,-8.6
2022-12-13T02:10:06.462Z,-8.5
2022-12-13T02:11:06.049Z,-8.6
2022-12-13T02:12:06.660Z,-10
2022-12-13T02:13:06.000Z,-8.6
2022-12-13T02:14:06.671Z,-8.6
2022-12-13T02:15:06.171Z,-8.6
2022-12-13T02:16:06.681Z,-8.6
2022-12-13T02:17:05.949Z,-8.6
2022-12-13T02:18:06.047Z,-8.6
2022-12-13T02:19:05.622Z,-10
2022-12-13T02:20:04.620Z,-8.7
2022-12-13T02:21:04.916Z,-8.7
2022-12-13T02:22:06.305Z,-8.7
2022-12-13T02:23:06.506Z,-8.7
2022-12-13T02:24:13.403Z,-8.7
2022-12-13T02:25:05.686Z,-8.7
2022-12-13T02:26:06.079Z,-10
2022-12-13T02:27:05.683Z,-8.7
2022-12-13T02:28:32.815Z,-8.7
2022-12-13T02:29:05.584Z,-8.7
2022-12-13T02:30:06.156Z,-8.7
2022-12-13T02:31:06.631Z,-8.7
2022-12-13T02:32:05.773Z,-8.8
2022-12-13T02:33:05.674Z,-8.8
2022-12-13T02:34:05.658Z,-10
2022-12-13T02:35:06.181Z,-10
2022-12-13T02:36:05.600Z,-8.8
2022-12-13T02:37:05.551Z,-8.8
2022-12-13T02:38:06.521Z,-8.8
2022-12-13T02:39:05.997Z,-8.8
2022-12-13T02:40:06.124Z,-8.8
2022-12-13T02:41:05.631Z,-8.8
2022-12-13T02:42:05.517Z,-8.8
2022-12-13T02:43:06.010Z,-8.9
2022-12-13T02:44:23.841Z,-8.9
2022-12-13T02:45:05.723Z,-8.9
2022-12-13T02:46:06.766Z,-8.9
2022-12-13T02:47:05.979Z,-8.9
2022-12-13T02:48:05.428Z,-8.9
2022-12-13T02:49:06.006Z,-8.9
2022-12-13T02:50:05.482Z,-8.9
2022-12-13T02:51:06.086Z,-9
2022-12-13T02:52:05.564Z,-8.9
2022-12-13T02:53:05.897Z,-8.9
2022-12-13T02:54:04.564Z,-8.9
2022-12-13T02:55:06.146Z,-9
2022-12-13T02:56:06.355Z,-9
2022-12-13T02:57:05.752Z,-9
2022-12-13T02:58:06.104Z,-9
2022-12-13T02:59:05.869Z,-8.9
2022-12-13T03:00:06.407Z,-9
2022-12-13T03:01:31.115Z,-9
2022-12-13T03:02:30.758Z,-9
2022-12-13T03:03:06.690Z,-9
2022-12-13T03:04:06.510Z,-9
2022-12-13T03:05:05.896Z,-9
2022-12-13T03:06:06.447Z,-9
2022-12-13T03:07:05.893Z,-9
2022-12-13T03:08:05.866Z,-9
2022-12-13T03:09:06.338Z,-9
2022-12-13T03:10:05.651Z,-10
2022-12-13T03:11:06.247Z,-9
2022-12-13T03:12:05.747Z,-10
2022-12-13T03:13:06.197Z,-9
2022-12-13T03:14:05.724Z,-9
2022-12-13T03:15:06.307Z,-9
2022-12-13T03:16:06.289Z,-9
2022-12-13T03:17:05.737Z,-9
2022-12-13T03:18:05.705Z,-9
2022-12-13T03:19:05.878Z,-9
2022-12-13T03:20:22.602Z,-8.9
2022-12-13T03:21:05.141Z,-8.9
2022-12-13T03:22:04.586Z,-10
2022-12-13T03:23:06.400Z,-8.8
2022-12-13T03:24:05.545Z,-8.9
2022-12-13T03:25:05.937Z,-8.8
2022-12-13T03:26:05.736Z,-8.8
2022-12-13T03:27:06.208Z,-8.8
2022-12-13T03:28:06.900Z,-8.8
2022-12-13T03:29:06.298Z,-8.8
2022-12-13T03:30:05.915Z,-8.8
2022-12-13T03:31:06.715Z,-8.8
2022-12-13T03:32:06.001Z,-8.8
2022-12-13T03:33:06.395Z,-8.8
2022-12-13T03:34:05.961Z,-8.8
2022-12-13T03:35:24.256Z,-8.8
2022-12-13T03:36:06.342Z,-8.8
2022-12-13T03:37:05.861Z,-8.8
2022-12-13T03:38:06.339Z,-8.8
2022-12-13T03:39:06.427Z,-8.7
2022-12-13T03:40:05.960Z,-10
2022-12-13T03:41:06.403Z,-10
2022-12-13T03:42:05.938Z,-10
2022-12-13T03:43:05.643Z,-8.7
2022-12-13T03:44:06.177Z,-8.6
2022-12-13T03:45:05.725Z,-8.6
2022-12-13T03:46:06.133Z,-10
2022-12-13T03:47:05.592Z,-10
2022-12-13T03:48:05.758Z,-8.6
2022-12-13T03:49:05.629Z,-8.6
2022-12-13T03:50:30.745Z,-8.6
2022-12-13T03:51:05.682Z,-8.6
2022-12-13T03:52:05.588Z,-8.6
2022-12-13T03:53:06.127Z,-9
2022-12-13T03:54:06.430Z,-8.6
2022-12-13T03:55:05.802Z,-8.6
2022-12-13T03:56:06.513Z,-8.6
2022-12-13T03:57:05.968Z,-8.6
2022-12-13T03:58:14.985Z,-8.6
2022-12-13T03:59:05.965Z,-8.6
2022-12-13T04:00:05.654Z,-8.6
2022-12-13T04:01:05.265Z,-8.6
2022-12-13T04:02:05.666Z,-8.6
2022-12-13T04:03:06.467Z,-8.6
2022-12-13T04:04:04.703Z,-8.6
2022-12-13T04:05:05.886Z,-8.7
2022-12-13T04:06:05.705Z,-8.6
2022-12-13T04:07:24.156Z,-8.7
2022-12-13T04:08:23.967Z,-8.6
2022-12-13T04:09:06.137Z,-8.6
2022-12-13T04:10:28.023Z,-8.6
2022-12-13T04:11:05.986Z,-8.6
2022-12-13T04:12:06.489Z,-8.6
2022-12-13T04:13:05.648Z,-8.6
2022-12-13T04:14:06.087Z,-10
2022-12-13T04:15:05.758Z,-10
2022-12-13T04:16:06.176Z,-8.6
2022-12-13T04:17:05.715Z,-8.6
2022-12-13T04:18:06.896Z,-8.6
2022-12-13T04:19:05.616Z,-8.6
2022-12-13T04:20:06.219Z,-8.6
2022-12-13T04:21:05.629Z,-8.6
2022-12-13T04:22:06.016Z,-8.6
2022-12-13T04:23:14.295Z,-8.7
2022-12-13T04:24:06.023Z,-8.7
2022-12-13T04:25:05.787Z,-8.7
2022-12-13T04:26:06.309Z,-8.7
2022-12-13T04:27:06.200Z,-8.7
2022-12-13T04:28:05.615Z,-8.7
2022-12-13T04:29:05.578Z,-8.7
2022-12-13T04:30:06.425Z,-8.6
2022-12-13T04:31:06.573Z,-8.6
2022-12-13T04:32:26.178Z,-10
2022-12-13T04:33:04.699Z,-10
2022-12-13T04:34:06.027Z,-8.6
2022-12-13T04:35:05.988Z,-8.6
2022-12-13T04:36:06.503Z,-8.6
2022-12-13T04:37:05.917Z,-8.5
2022-12-13T04:38:05.869Z,-8.5
2022-12-13T04:39:24.598Z,-8.5
2022-12-13T04:40:05.734Z,-8.5
2022-12-13T04:41:06.413Z,-8.5
2022-12-13T04:42:05.852Z,-8.5
2022-12-13T04:43:06.264Z,-8.5
2022-12-13T04:44:05.651Z,-10
2022-12-13T04:45:05.777Z,-8.6
2022-12-13T04:46:06.490Z,-8.6
2022-12-13T04:47:05.850Z,-8.6
2022-12-13T04:48:06.570Z,-9
2022-12-13T04:49:05.912Z,-8.6
2022-12-13T04:50:06.210Z,-8.6
2022-12-13T04:51:05.900Z,-8.6
2022-12-13T04:52:06.341Z,-9
2022-12-13T04:53:04.912Z,-8.6
2022-12-13T04:54:28.118Z,-8.6
2022-12-13T04:55:04.698Z,-8.6
2022-12-13T04:56:05.255Z,-9
2022-12-13T04:57:05.935Z,-9
2022-12-13T04:58:06.329Z,-8.6
2022-12-13T04:59:05.780Z,-8.6
2022-12-13T05:00:06.452Z,-8.6
2022-12-13T05:01:06.312Z,-8.6
2022-12-13T05:02:05.676Z,-8.6
2022-12-13T05:03:05.949Z,-8.7
2022-12-13T05:04:06.366Z,-8.7
2022-12-13T05:05:06.321Z,-8.7
2022-12-13T05:06:05.530Z,-8.7
2022-12-13T05:07:06.033Z,-8.7
2022-12-13T05:08:06.608Z,-8.7
2022-12-13T05:09:13.467Z,-8.7
2022-12-13T05:10:06.292Z,-8.7
2022-12-13T05:11:05.764Z,-8.7
2022-12-13T05:12:24.005Z,-10
2022-12-13T05:13:05.839Z,-8.8
2022-12-13T05:14:06.172Z,-10
2022-12-13T05:15:05.737Z,-8.8
2022-12-13T05:16:06.304Z,-8.8
2022-12-13T05:17:05.956Z,-8.8
2022-12-13T05:18:14.700Z,-8.9
2022-12-13T05:19:06.102Z,-8.9
2022-12-13T05:20:05.056Z,-8.9
2022-12-13T05:21:05.025Z,-10
2022-12-13T05:22:06.560Z,-8.9
2022-12-13T05:23:06.340Z,-10
2022-12-13T05:24:05.789Z,-8.9
2022-12-13T05:25:05.979Z,-8.9
2022-12-13T05:26:05.908Z,-8.9
2022-12-13T05:27:29.115Z,-8.8
2022-12-13T05:28:31.298Z,-8.8
2022-12-13T05:30:08.424Z,-8.8
2022-12-13T05:31:05.906Z,-10
2022-12-13T05:32:05.935Z,-10
2022-12-13T05:33:06.166Z,-8.8
2022-12-13T05:34:06.001Z,-8.8
2022-12-13T05:35:06.034Z,-8.8
2022-12-13T05:36:06.547Z,-8.8
2022-12-13T05:37:05.580Z,-8.8
2022-12-13T05:38:06.128Z,-8.8
2022-12-13T05:39:05.658Z,-8.8
2022-12-13T05:40:05.569Z,-10
2022-12-13T05:41:05.977Z,-8.8
2022-12-13T05:42:07.081Z,-8.8
2022-12-13T05:43:23.415Z,-8.8
2022-12-13T05:44:05.822Z,-8.8
2022-12-13T05:45:05.720Z,-8.8
2022-12-13T05:46:06.001Z,-8.8
2022-12-13T05:47:07.000Z,-8.8
2022-12-13T05:48:05.930Z,-8.8
2022-12-13T05:49:06.613Z,-8.8
2022-12-13T05:50:06.255Z,-8.8
2022-12-13T05:51:15.556Z,-8.7
2022-12-13T05:52:05.617Z,-8.7
2022-12-13T05:53:06.360Z,-8.7
2022-12-13T05:54:06.367Z,-8.7
2022-12-13T05:55:05.847Z,-8.7
2022-12-13T05:56:06.081Z,-8.7
2022-12-13T05:57:06.365Z,-8.6
2022-12-13T05:58:15.143Z,-8.6
2022-12-13T05:59:05.890Z,-8.6
2022-12-13T06:00:05.982Z,-8.6
2022-12-13T06:01:05.910Z,-8.5
2022-12-13T06:02:06.539Z,-8.5
2022-12-13T06:03:07.106Z,-8.5
2022-12-13T06:04:05.551Z,-8.5
2022-12-13T06:05:06.017Z,-8.5
2022-12-13T06:06:05.873Z,-9
2022-12-13T06:07:06.377Z,-9
2022-12-13T06:08:26.719Z,-8.5
2022-12-13T06:09:06.239Z,-8.5
2022-12-13T06:10:23.813Z,-8.4
2022-12-13T06:11:34.367Z,-8.4
2022-12-13T06:12:33.147Z,-8.4
2022-12-13T06:13:34.356Z,-8.4
2022-12-13T06:15:24.054Z,-8.4
2022-12-13T06:17:06.546Z,-8.4
2022-12-13T06:18:06.354Z,-9
2022-12-13T06:19:08.807Z,-9
2022-12-13T06:20:28.103Z,-9
2022-12-13T06:21:05.812Z,-9
2022-12-13T06:22:05.893Z,-8.3
2022-12-13T06:23:05.999Z,-8.3
2022-12-13T06:24:05.966Z,-8.2
2022-12-13T06:25:06.431Z,-8.2
2022-12-13T06:26:05.564Z,-8.2
2022-12-13T06:27:06.206Z,-8.2
2022-12-13T06:28:05.892Z,-8.2
2022-12-13T06:29:06.110Z,-8.2
2022-12-13T06:30:07.085Z,-8.2
2022-12-13T06:31:06.474Z,-8.2
2022-12-13T06:32:07.812Z,-8.2
2022-12-13T06:33:06.004Z,-8.2
2022-12-13T06:34:18.578Z,-8.1
2022-12-13T06:35:36.629Z,-8.1
2022-12-13T06:36:06.446Z,-8.1
2022-12-13T06:37:05.998Z,-8.1
2022-12-13T06:38:13.866Z,-8.1
2022-12-13T06:39:05.428Z,-8.1
2022-12-13T06:40:05.007Z,-8.1
2022-12-13T06:41:05.393Z,-9
2022-12-13T06:42:05.678Z,-8
2022-12-13T06:43:06.201Z,-8.1
2022-12-13T06:44:05.867Z,-8.1
2022-12-13T06:45:06.413Z,-8
2022-12-13T06:46:05.854Z,-8
2022-12-13T06:47:33.843Z,-8
2022-12-13T06:48:05.698Z,-8
2022-12-13T06:49:06.332Z,-8
2022-12-13T06:50:09.538Z,-8
2022-12-13T06:51:06.175Z,-8
2022-12-13T06:52:06.188Z,-8
2022-12-13T06:53:05.698Z,-8
2022-12-13T06:54:06.347Z,-8
2022-12-13T06:55:05.852Z,-8
2022-12-13T06:56:06.142Z,-9
2022-12-13T06:57:05.589Z,-8.1
2022-12-13T06:58:06.192Z,-8.1
2022-12-13T06:59:06.629Z,-8
2022-12-13T07:00:06.424Z,-9
2022-12-13T07:01:06.184Z,-8.1
2022-12-13T07:02:15.240Z,-9
2022-12-13T07:03:06.260Z,-9
2022-12-13T07:04:05.575Z,-8.1
2022-12-13T07:05:06.549Z,-9
2022-12-13T07:06:05.697Z,-8.1
2022-12-13T07:07:06.612Z,-9
2022-12-13T07:08:06.466Z,-8.1
2022-12-13T07:09:06.019Z,-8.1
2022-12-13T07:10:06.449Z,-8.1
2022-12-13T07:11:05.905Z,-8.1
2022-12-13T07:12:09.360Z,-8.2
2022-12-13T07:13:05.854Z,-8.2
2022-12-13T07:14:06.443Z,-8.1
2022-12-13T07:15:05.722Z,-8.1
2022-12-13T07:16:06.430Z,-8.1
2022-12-13T07:17:08.035Z,-9
2022-12-13T07:18:05.899Z,-8.1
2022-12-13T07:19:24.830Z,-8.1
2022-12-13T07:20:05.930Z,-8
2022-12-13T07:21:05.676Z,-8
2022-12-13T07:22:06.336Z,-8
2022-12-13T07:23:05.517Z,-8
2022-12-13T07:24:06.070Z,-8.1
2022-12-13T07:25:06.097Z,-8
2022-12-13T07:26:06.541Z,-8
2022-12-13T07:27:06.276Z,-8
2022-12-13T07:28:07.047Z,-9
2022-12-13T07:29:05.633Z,-8
2022-12-13T07:30:06.233Z,-8
2022-12-13T07:31:06.064Z,-8
2022-12-13T07:32:06.406Z,-8
2022-12-13T07:33:04.805Z,-9
2022-12-13T07:34:06.279Z,-8
2022-12-13T07:35:06.318Z,-8
2022-12-13T07:36:05.640Z,-8
2022-12-13T07:37:06.356Z,-7.9
2022-12-13T07:38:06.089Z,-8
2022-12-13T07:39:05.527Z,-8
2022-12-13T07:40:08.799Z,-7.9
2022-12-13T07:41:05.788Z,-7.9
2022-12-13T07:42:06.114Z,-8
2022-12-13T07:43:05.519Z,-8
2022-12-13T07:44:06.049Z,-7.9
2022-12-13T07:45:05.950Z,-7.9
2022-12-13T07:46:06.445Z,-7.8
2022-12-13T07:47:06.604Z,-7.8
2022-12-13T07:48:05.813Z,-7.8
2022-12-13T07:49:06.366Z,-7.8
2022-12-13T07:50:26.204Z,-7.8
2022-12-13T07:51:06.008Z,-7.8
2022-12-13T07:52:05.476Z,-7.7
2022-12-13T07:53:05.997Z,-7.7
2022-12-13T07:54:10.648Z,-7.7
2022-12-13T07:55:05.575Z,-7.6
2022-12-13T07:56:05.974Z,-7.7
2022-12-13T07:57:08.757Z,-7.7
2022-12-13T07:58:08.215Z,-7.6
2022-12-13T07:59:06.223Z,-7.6
2022-12-13T08:00:05.724Z,-7.6
2022-12-13T08:01:06.276Z,-7.6
2022-12-13T08:02:06.541Z,-7.6
2022-12-13T08:03:06.089Z,-7.6
2022-12-13T08:04:05.535Z,-7.5
2022-12-13T08:05:30.116Z,-7.5
2022-12-13T08:06:06.458Z,-7.5
2022-12-13T08:07:06.394Z,-7.4
2022-12-13T08:08:06.039Z,-7.3
2022-12-13T08:09:06.411Z,-7.3
2022-12-13T08:10:05.847Z,-7.2
2022-12-13T08:11:06.310Z,-7.2
2022-12-13T08:12:05.741Z,-7.2
2022-12-13T08:13:06.374Z,-7.1
2022-12-13T08:14:05.680Z,-7.1
2022-12-13T08:15:13.752Z,-8
2022-12-13T08:16:29.552Z,-7.2
2022-12-13T08:17:05.907Z,-7.1
2022-12-13T08:18:06.443Z,-7
2022-12-13T08:19:08.809Z,-7.1
2022-12-13T08:20:06.276Z,-7
2022-12-13T08:21:14.161Z,-7
2022-12-13T08:22:16.305Z,-7
2022-12-13T08:24:06.630Z,-6.9
2022-12-13T08:25:05.921Z,-6.8
2022-12-13T08:26:06.329Z,-6.8
2022-12-13T08:27:06.128Z,-7
2022-12-13T08:28:07.034Z,-6.8
2022-12-13T08:29:05.540Z,-6.8
2022-12-13T08:30:06.058Z,-6.7
2022-12-13T08:31:06.510Z,-6.7
2022-12-13T08:32:06.320Z,-6.7
2022-12-13T08:33:09.541Z,-6.5
2022-12-13T08:34:05.660Z,-6.5
2022-12-13T08:35:05.476Z,-6.4
2022-12-13T08:36:05.895Z,-6.4
2022-12-13T08:37:08.385Z,-6.4
2022-12-13T08:38:05.953Z,-6.3
2022-12-13T08:39:06.411Z,-6.3
2022-12-13T08:40:05.937Z,-6.1
2022-12-13T08:41:05.328Z,-6
2022-12-13T08:42:22.163Z,-6
2022-12-13T08:43:06.205Z,-6
2022-12-13T08:44:05.773Z,-5.9
2022-12-13T08:45:06.058Z,-5.8
2022-12-13T08:46:05.803Z,-5.8
2022-12-13T08:47:06.064Z,-5.7
2022-12-13T08:48:05.785Z,-5.6
2022-12-13T08:49:06.930Z,-6
2022-12-13T08:50:06.937Z,-6
2022-12-13T08:51:05.101Z,-5.4
2022-12-13T08:52:06.365Z,-5.4
2022-12-13T08:53:05.807Z,-5.3
2022-12-13T08:54:32.920Z,-5.3
2022-12-13T08:55:05.673Z,-5.2
2022-12-13T08:56:05.839Z,-5.2
2022-12-13T08:57:06.418Z,-6
2022-12-13T08:58:06.032Z,-6
2022-12-13T08:59:05.590Z,-5
2022-12-13T09:00:06.058Z,-5
2022-12-13T09:01:06.494Z,-4.9
2022-12-13T09:02:09.552Z,-4.8
2022-12-13T09:03:06.116Z,-4.8
2022-12-13T09:04:05.562Z,-5
2022-12-13T09:05:06.051Z,-5
2022-12-13T09:06:05.640Z,-4.7
2022-12-13T09:07:06.305Z,-4.6
2022-12-13T09:08:22.836Z,-4.5
2022-12-13T09:09:07.913Z,-4.5
2022-12-13T09:10:30.234Z,-4.5
2022-12-13T09:11:40.369Z,-4.4
2022-12-13T09:12:32.769Z,-4.4
2022-12-13T09:13:33.569Z,-4.4
2022-12-13T09:15:24.557Z,-4.1
2022-12-13T09:16:06.798Z,-4.2
2022-12-13T09:17:07.479Z,-4.2
2022-12-13T09:18:24.071Z,-4.1
2022-12-13T09:19:29.392Z,-4
2022-12-13T09:20:31.569Z,-4
2022-12-13T09:21:31.241Z,-3.9
2022-12-13T09:23:06.904Z,-3.8
2022-12-13T09:24:26.301Z,-3.7
2022-12-13T09:26:17.141Z,-3.5
2022-12-13T09:27:27.374Z,-3.5
2022-12-13T09:29:15.449Z,-5
2022-12-13T09:30:06.366Z,-3.3
2022-12-13T09:31:06.288Z,-3.3
2022-12-13T09:32:05.466Z,-3.2
2022-12-13T09:33:43.462Z,-3.2
2022-12-13T09:34:06.754Z,-3.1
2022-12-13T09:35:05.875Z,-3.1
2022-12-13T09:36:06.440Z,-3.1
2022-12-13T09:37:06.274Z,-2.9
2022-12-13T09:38:06.202Z,-2.8
2022-12-13T09:39:05.705Z,-2.8
2022-12-13T09:40:27.964Z,-2.8
2022-12-13T09:41:12.348Z,-2.6
2022-12-13T09:42:14.750Z,-2.5
2022-12-13T09:43:42.803Z,-2.6
2022-12-13T09:45:22.065Z,-2.4
2022-12-13T09:46:22.467Z,-2.3
2022-12-13T09:47:15.511Z,-2.3
2022-12-13T09:48:27.209Z,-2.2
2022-12-13T09:49:15.165Z,-2.2
2022-12-13T09:50:08.402Z,-4
2022-12-13T09:51:45.979Z,-2.2
2022-12-13T09:52:24.251Z,-2.2
2022-12-13T09:53:21.209Z,-2.2
2022-12-13T09:54:05.716Z,-2.1
2022-12-13T09:55:12.874Z,-2.1
2022-12-13T09:56:15.385Z,-2
2022-12-13T09:57:06.313Z,-2
2022-12-13T09:58:05.847Z,-2
2022-12-13T09:59:05.660Z,-1.9
2022-12-13T10:00:06.601Z,-1.9
2022-12-13T10:01:06.325Z,-4
2022-12-13T10:02:05.785Z,-1.7
2022-12-13T10:03:06.043Z,-1.7
2022-12-13T10:04:06.154Z,-1.7
2022-12-13T10:05:33.962Z,-1.6
2022-12-13T10:06:05.740Z,-1.6
2022-12-13T10:07:06.222Z,-1.5
2022-12-13T10:08:04.652Z,-1.5
2022-12-13T10:09:06.167Z,-1.4
2022-12-13T10:10:05.531Z,-1.4
2022-12-13T10:11:05.664Z,-1.2
2022-12-13T10:12:06.205Z,-4
2022-12-13T10:13:06.422Z,-4
2022-12-13T10:14:06.156Z,-1.2
2022-12-13T10:15:06.035Z,-1.2
2022-12-13T10:16:06.857Z,-1.2
2022-12-13T10:17:06.480Z,-1.2
2022-12-13T10:18:05.908Z,-1.1
2022-12-13T10:19:06.465Z,-1.1
2022-12-13T10:20:06.251Z,-1
2022-12-13T10:21:06.245Z,-0.9
2022-12-13T10:22:07.145Z,-0.8
2022-12-13T10:24:25.040Z,-0.7
2022-12-13T10:24:38.784Z,-0.7
2022-12-13T10:26:23.684Z,-0.5
2022-12-13T10:27:05.989Z,-0.5
2022-12-13T10:28:06.416Z,-4
2022-12-13T10:29:05.044Z,-0.4
2022-12-13T10:30:06.154Z,-0.4
2022-12-13T10:31:05.994Z,-0.4
2022-12-13T10:32:06.434Z,-0.3
2022-12-13T10:33:05.337Z,-0.2
2022-12-13T10:34:05.175Z,-0.1
2022-12-13T10:35:05.753Z,0
2022-12-13T10:36:06.401Z,0
2022-12-13T10:37:06.511Z,0
2022-12-13T10:38:06.016Z,0.1
2022-12-13T10:39:06.024Z,0.1
2022-12-13T10:40:05.585Z,0.2
2022-12-13T10:41:05.859Z,0.2
2022-12-13T10:42:06.209Z,0.3
2022-12-13T10:43:05.681Z,0.3
2022-12-13T10:44:06.123Z,-4
2022-12-13T10:45:06.358Z,0.4
2022-12-13T10:46:06.553Z,0.3
2022-12-13T10:47:05.620Z,0.3
2022-12-13T10:48:08.449Z,0.3
2022-12-13T10:49:06.513Z,0.4
2022-12-13T10:50:05.981Z,0.4
2022-12-13T10:51:06.694Z,0.4
2022-12-13T10:52:05.841Z,0.4
2022-12-13T10:53:06.373Z,0.4
2022-12-13T10:54:05.671Z,0.6
2022-12-13T10:55:24.846Z,0.8
2022-12-13T10:56:06.741Z,0.8
2022-12-13T10:57:06.038Z,1
2022-12-13T10:58:06.503Z,0.8
2022-12-13T10:59:04.888Z,0.8
2022-12-13T11:00:17.398Z,-4
2022-12-13T11:01:06.266Z,0.8
2022-12-13T11:02:05.802Z,0.8
2022-12-13T11:03:06.110Z,0.8
2022-12-13T11:04:06.865Z,0.8
2022-12-13T11:05:13.530Z,0.8
2022-12-13T11:06:06.020Z,0.8
2022-12-13T11:07:06.396Z,0.8
2022-12-13T11:08:05.944Z,0.7
2022-12-13T11:09:05.993Z,0.7
2022-12-13T11:10:16.807Z,0.7
2022-12-13T11:11:06.307Z,0.7
2022-12-13T11:12:05.936Z,0.8
2022-12-13T11:13:05.665Z,0.8
2022-12-13T11:14:06.250Z,0.8
2022-12-13T11:15:05.705Z,0.8
2022-12-13T11:16:05.997Z,0.7
2022-12-13T11:17:06.386Z,0.6
2022-12-13T11:18:05.778Z,0.6
2022-12-13T11:19:06.287Z,0.6
2022-12-13T11:20:05.597Z,0.8
2022-12-13T11:21:06.088Z,0.8
2022-12-13T11:22:05.493Z,0.8
2022-12-13T11:23:05.876Z,0.8
2022-12-13T11:24:06.498Z,0.8
2022-12-13T11:25:06.187Z,0.8
2022-12-13T11:26:05.723Z,0.9
2022-12-13T11:27:06.186Z,0.9
2022-12-13T11:28:27.941Z,0.8
2022-12-13T11:29:05.806Z,0.8
2022-12-13T11:30:06.255Z,0.8
2022-12-13T11:31:05.891Z,0.8
2022-12-13T11:32:06.630Z,1
2022-12-13T11:33:05.757Z,1
2022-12-13T11:34:06.225Z,1
2022-12-13T11:35:07.081Z,1
2022-12-13T11:36:06.198Z,1.1
2022-12-13T11:37:05.766Z,1.1
2022-12-13T11:38:06.162Z,1.2
2022-12-13T11:39:05.780Z,1.2
2022-12-13T11:40:06.492Z,1.3
2022-12-13T11:41:05.727Z,1.4
2022-12-13T11:42:06.211Z,1.5
2022-12-13T11:43:05.755Z,1.5
2022-12-13T11:44:07.818Z,1.8
2022-12-13T11:45:05.029Z,2
2022-12-13T11:46:06.580Z,-4
2022-12-13T11:47:05.780Z,2
2022-12-13T11:48:06.153Z,-3
2022-12-13T11:49:05.685Z,-3
2022-12-13T11:50:05.981Z,2
2022-12-13T11:51:06.170Z,1.9
2022-12-13T11:52:05.619Z,1.8
2022-12-13T11:53:06.029Z,1.8
2022-12-13T11:54:05.585Z,1.8
2022-12-13T11:55:06.009Z,1.8
2022-12-13T11:56:06.474Z,-3
2022-12-13T11:57:06.019Z,1.7
2022-12-13T11:58:06.483Z,-3
2022-12-13T11:59:24.223Z,-3
2022-12-13T12:00:15.421Z,1.3
2022-12-13T12:01:05.526Z,1.2
2022-12-13T12:02:18.944Z,1.2
2022-12-13T12:03:06.080Z,1.2
2022-12-13T12:04:06.316Z,0.9
2022-12-13T12:05:06.464Z,1
2022-12-13T12:06:05.971Z,1
2022-12-13T12:07:35.044Z,0.9
2022-12-13T12:08:46.257Z,0.8
2022-12-13T12:09:06.339Z,0.8
2022-12-13T12:10:04.559Z,0.8
2022-12-13T12:11:06.240Z,0.7
2022-12-13T12:12:06.370Z,0.5
2022-12-13T12:13:06.115Z,0.4
2022-12-13T12:14:05.667Z,0.4
2022-12-13T12:15:19.339Z,0.4
2022-12-13T12:16:05.831Z,0.2
2022-12-13T12:17:06.305Z,0.2
2022-12-13T12:18:05.732Z,0.1
2022-12-13T12:19:06.547Z,0.1
2022-12-13T12:20:05.944Z,0.1
2022-12-13T12:21:06.483Z,0
2022-12-13T12:22:18.480Z,0
2022-12-13T12:23:06.369Z,0
2022-12-13T12:24:06.994Z,-0.2
2022-12-13T12:25:06.513Z,-4
2022-12-13T12:26:05.943Z,-0.3
2022-12-13T12:27:06.323Z,-0.3
2022-12-13T12:28:05.993Z,-0.4
2022-12-13T12:29:10.638Z,-0.4
2022-12-13T12:30:06.139Z,-0.5
2022-12-13T12:31:06.660Z,-0.5
2022-12-13T12:32:05.688Z,-0.5
2022-12-13T12:33:05.753Z,-0.5
2022-12-13T12:34:06.244Z,-0.5
2022-12-13T12:35:06.045Z,-0.5
2022-12-13T12:36:06.414Z,-4
2022-12-13T12:37:07.552Z,-0.8
2022-12-13T12:38:06.421Z,-0.8
2022-12-13T12:39:06.253Z,-0.9
2022-12-13T12:40:05.764Z,-1
2022-12-13T12:41:22.142Z,-1
2022-12-13T12:42:05.932Z,-1
2022-12-13T12:43:20.010Z,-1
2022-12-13T12:44:05.731Z,-1.1
2022-12-13T12:45:06.005Z,-1.2
2022-12-13T12:46:06.499Z,-1.2
2022-12-13T12:48:58.769Z,-1.4
2022-12-13T12:49:03.988Z,-1.5
2022-12-13T12:50:05.631Z,-4
2022-12-13T12:51:06.089Z,-1.6
2022-12-13T12:52:05.649Z,-1.6
2022-12-13T12:53:05.798Z,-1.7
2022-12-13T12:54:05.045Z,-1.7
2022-12-13T12:55:05.210Z,-1.7
2022-12-13T12:56:06.247Z,-1.8
2022-12-13T12:57:06.392Z,-1.8
2022-12-13T12:58:05.982Z,-1.8
2022-12-13T12:59:06.129Z,-1.8
2022-12-13T13:00:06.712Z,-1.8
2022-12-13T13:01:06.449Z,-1.8
2022-12-13T13:02:06.326Z,-1.9
2022-12-13T13:03:22.529Z,-1.9
2022-12-13T13:04:06.256Z,-2
2022-12-13T13:05:05.787Z,-2
2022-12-13T13:06:07.166Z,-2
2022-12-13T13:07:24.620Z,-2
2022-12-13T13:08:07.179Z,-2.1
2022-12-13T13:09:06.213Z,-2.1
2022-12-13T13:10:30.046Z,-2.1
2022-12-13T13:11:24.077Z,-2.1
2022-12-13T13:12:33.821Z,-2.2
2022-12-13T13:13:35.528Z,-2.3
2022-12-13T13:15:05.774Z,-2.4
2022-12-13T13:16:06.498Z,-2.4
2022-12-13T13:17:05.829Z,-4
2022-12-13T13:18:06.655Z,-2.5
2022-12-13T13:19:05.811Z,-2.5
2022-12-13T13:20:16.273Z,-2.5
2022-12-13T13:21:05.563Z,-2.5
2022-12-13T13:22:32.642Z,-2.5
2022-12-13T13:23:44.334Z,-2.6
2022-12-13T13:25:04.780Z,-2.6
2022-12-13T13:26:36.693Z,-2.6
2022-12-13T13:27:05.842Z,-2.7
2022-12-13T13:28:05.633Z,-2.7
2022-12-13T13:29:06.186Z,-2.8
2022-12-13T13:30:06.031Z,-2.8
2022-12-13T13:31:06.623Z,-2.9
2022-12-13T13:32:06.602Z,-2.9
2022-12-13T13:33:06.223Z,-2.9
2022-12-13T13:34:06.274Z,-3
2022-12-13T13:35:05.654Z,-2.9
2022-12-13T13:36:05.765Z,-2.9
2022-12-13T13:37:05.794Z,-3.1
2022-12-13T13:38:09.125Z,-3.1
2022-12-13T13:39:05.741Z,-3.1
2022-12-13T13:40:05.706Z,-3.2
2022-12-13T13:41:05.322Z,-3.2
2022-12-13T13:42:05.490Z,-3.2
2022-12-13T13:43:06.016Z,-3.2
2022-12-13T13:44:05.836Z,-3.2
2022-12-13T13:45:06.211Z,-3.2